createdAt,value
2022-08-16T00:03:26.898Z,2.28
2022-08-16T00:07:23.896Z,2.90
2022-08-16T00:11:21.973Z,6.10
2022-08-16T00:15:51.600Z,4.70
2022-08-16T00:19:45.677Z,3.53
2022-08-16T00:23:46.076Z,3.60
2022-08-16T00:27:43.859Z,3.17
2022-08-16T00:32:00.683Z,2.15
2022-08-16T00:36:03.060Z,4.47
2022-08-16T00:40:00.626Z,2.42
2022-08-16T00:44:10.766Z,3.97
2022-08-16T00:48:30.539Z,2.20
2022-08-16T00:52:30.450Z,3.50
2022-08-16T00:56:56.766Z,2.83
2022-08-16T01:00:54.327Z,2.95
2022-08-16T01:05:11.078Z,2.65
2022-08-16T01:09:09.039Z,4.20
2022-08-16T01:13:15.287Z,4.18
2022-08-16T01:17:15.481Z,3.30
2022-08-16T01:21:39.752Z,3.35
2022-08-16T01:25:44.723Z,4.65
2022-08-16T01:30:21.944Z,3.33
2022-08-16T01:34:26.603Z,3.45
2022-08-16T01:38:37.510Z,4.80
2022-08-16T01:42:39.540Z,3.53
2022-08-16T01:46:45.126Z,2.85
2022-08-16T01:51:09.115Z,3.25
2022-08-16T01:55:07.286Z,3.47
2022-08-16T01:59:15.770Z,5.55
2022-08-16T02:03:14.680Z,2.70
2022-08-16T02:07:13.360Z,2.53
2022-08-16T02:11:11.456Z,3.70
2022-08-16T02:15:09.138Z,3.00
2022-08-16T02:19:16.192Z,2.75
2022-08-16T02:23:14.334Z,3.70
2022-08-16T02:27:15.052Z,4.35
2022-08-16T02:31:16.112Z,2.50
2022-08-16T02:35:13.991Z,4.45
2022-08-16T02:39:15.997Z,4.05
2022-08-16T02:43:13.921Z,5.55
2022-08-16T02:47:12.497Z,3.63
2022-08-16T02:51:23.337Z,4.82
2022-08-16T02:55:40.826Z,4.45
2022-08-16T02:59:42.428Z,3.42
2022-08-16T03:04:39.640Z,6.20
2022-08-16T03:07:57.834Z,9.60
2022-08-16T03:11:56.080Z,3.73
2022-08-16T03:15:54.214Z,6.88
2022-08-16T03:20:00.010Z,5.20
2022-08-16T03:24:02.879Z,4.70
2022-08-16T03:28:00.766Z,4.00
2022-08-16T03:32:01.403Z,4.47
2022-08-16T03:36:30.416Z,4.90
2022-08-16T03:40:23.273Z,4.90
2022-08-16T03:44:40.774Z,5.25
2022-08-16T03:48:45.566Z,7.37
2022-08-16T03:52:47.684Z,5.60
2022-08-16T03:56:57.665Z,3.77
2022-08-16T04:00:59.370Z,7.67
2022-08-16T04:04:57.397Z,5.53
2022-08-16T04:08:55.090Z,4.10
2022-08-16T04:12:55.427Z,4.63
2022-08-16T04:16:59.439Z,4.00
2022-08-16T04:21:07.158Z,5.30
2022-08-16T04:25:05.913Z,7.90
2022-08-16T04:29:16.781Z,7.70
2022-08-16T04:33:27.457Z,8.50
2022-08-16T04:37:27.180Z,9.20
2022-08-16T04:41:37.521Z,6.23
2022-08-16T04:45:38.632Z,7.20
2022-08-16T04:49:46.180Z,6.03
2022-08-16T04:53:45.393Z,7.47
2022-08-16T04:57:46.035Z,7.07
2022-08-16T05:01:58.799Z,5.17
2022-08-16T05:06:02.276Z,7.03
2022-08-16T05:10:19.397Z,4.13
2022-08-16T05:14:42.027Z,5.23
2022-08-16T05:18:35.556Z,5.90
2022-08-16T05:22:33.020Z,6.93
2022-08-16T05:26:33.485Z,6.32
2022-08-16T05:30:34.730Z,8.10
2022-08-16T05:34:38.691Z,7.15
2022-08-16T05:38:39.663Z,9.15
2022-08-16T05:42:45.956Z,7.35
2022-08-16T05:46:45.742Z,10.18
2022-08-16T05:50:47.599Z,7.00
2022-08-16T05:55:01.046Z,4.50
2022-08-16T05:59:01.366Z,4.93
2022-08-16T06:03:00.220Z,4.90
2022-08-16T06:07:26.695Z,7.07
2022-08-16T06:11:47.126Z,7.00
2022-08-16T06:15:44.684Z,4.28
2022-08-16T06:19:45.723Z,4.72
2022-08-16T06:23:45.269Z,4.30
2022-08-16T06:27:57.174Z,5.68
2022-08-16T06:31:57.674Z,4.30
2022-08-16T06:35:59.369Z,5.22
2022-08-16T06:39:58.885Z,4.85
2022-08-16T06:44:06.935Z,5.47
2022-08-16T06:48:19.045Z,4.88
2022-08-16T06:52:59.854Z,8.70
2022-08-16T06:56:54.196Z,9.02
2022-08-16T07:00:53.226Z,5.72
2022-08-16T07:04:53.301Z,7.70
2022-08-16T07:08:51.401Z,6.65
2022-08-16T07:13:03.539Z,8.45
2022-08-16T07:17:08.031Z,8.10
2022-08-16T07:21:10.197Z,8.20
2022-08-16T07:25:13.742Z,5.03
2022-08-16T07:29:11.115Z,4.50
2022-08-16T07:33:10.736Z,6.28
2022-08-16T07:37:14.158Z,4.90
2022-08-16T07:41:24.966Z,6.30
2022-08-16T07:45:28.697Z,6.47
2022-08-16T07:49:32.350Z,7.32
2022-08-16T07:53:43.805Z,5.22
2022-08-16T07:57:55.869Z,5.15
2022-08-16T08:01:59.297Z,5.00
2022-08-16T08:05:57.636Z,4.15
2022-08-16T08:09:57.064Z,5.97
2022-08-16T08:13:55.127Z,3.35
2022-08-16T08:17:54.637Z,6.28
2022-08-16T08:22:01.790Z,4.20
2022-08-16T08:26:17.380Z,5.13
2022-08-16T08:30:51.144Z,6.93
2022-08-16T08:34:34.429Z,4.60
2022-08-16T08:38:43.660Z,7.07
2022-08-16T08:42:43.746Z,4.50
2022-08-16T08:47:00.151Z,4.60
2022-08-16T08:50:59.341Z,6.18
2022-08-16T08:54:57.062Z,5.93
2022-08-16T08:58:59.169Z,6.03
2022-08-16T09:03:04.541Z,3.97
2022-08-16T09:07:04.763Z,5.05
2022-08-16T09:11:04.092Z,4.13
2022-08-16T09:15:09.221Z,5.60
2022-08-16T09:19:11.741Z,3.90
2022-08-16T09:23:08.985Z,5.43
2022-08-16T09:27:14.428Z,6.40
2022-08-16T09:31:14.835Z,3.80
2022-08-16T09:35:11.978Z,6.07
2022-08-16T09:39:16.375Z,4.32
2022-08-16T09:43:58.245Z,5.55
2022-08-16T09:47:56.506Z,5.47
2022-08-16T09:51:55.608Z,5.00
2022-08-16T09:55:56.954Z,4.70
2022-08-16T09:59:56.117Z,5.55
2022-08-16T10:04:01.564Z,3.53
2022-08-16T10:07:59.979Z,7.38
2022-08-16T10:12:35.468Z,5.03
2022-08-16T10:16:40.077Z,3.92
2022-08-16T10:20:42.924Z,4.60
2022-08-16T10:24:56.097Z,4.28
2022-08-16T10:28:57.122Z,4.03
2022-08-16T10:32:54.217Z,4.97
2022-08-16T10:36:54.333Z,4.65
2022-08-16T10:40:51.580Z,5.05
2022-08-16T10:44:53.584Z,4.63
2022-08-16T10:48:52.515Z,5.95
2022-08-16T10:52:50.312Z,7.60
2022-08-16T10:56:56.914Z,3.50
2022-08-16T11:00:57.587Z,3.78
2022-08-16T11:05:10.727Z,5.22
2022-08-16T11:09:25.346Z,4.05
2022-08-16T11:17:43.176Z,4.57
2022-08-16T11:26:16.438Z,6.63
2022-08-16T11:30:19.824Z,5.50
2022-08-16T11:34:19.886Z,4.85
2022-08-16T11:38:46.701Z,3.58
2022-08-16T11:42:39.499Z,5.57
2022-08-16T11:46:44.833Z,4.35
2022-08-16T11:50:44.996Z,3.90
2022-08-16T11:54:42.118Z,6.07
2022-08-16T11:58:42.137Z,4.63
2022-08-16T12:02:39.979Z,3.55
2022-08-16T12:06:43.159Z,3.70
2022-08-16T12:10:43.140Z,3.70
2022-08-16T12:14:40.766Z,6.43
2022-08-16T12:18:40.635Z,4.00
2022-08-16T12:22:38.972Z,3.70
2022-08-16T12:26:36.035Z,4.88
2022-08-16T12:30:41.015Z,5.40
2022-08-16T12:34:38.240Z,6.15
2022-08-16T12:38:48.929Z,4.18
2022-08-16T12:42:53.020Z,5.97
2022-08-16T12:47:10.572Z,7.15
2022-08-16T12:51:22.338Z,3.65
2022-08-16T12:55:23.953Z,3.63
2022-08-16T12:59:31.273Z,4.78
2022-08-16T13:03:29.015Z,4.70
2022-08-16T13:07:37.479Z,4.45
2022-08-16T13:11:48.395Z,3.28
2022-08-16T13:16:03.597Z,3.83
2022-08-16T13:20:09.458Z,4.90
2022-08-16T13:24:08.154Z,5.00
2022-08-16T13:28:05.825Z,3.47
2022-08-16T13:32:05.549Z,5.25
2022-08-16T13:36:07.370Z,3.35
2022-08-16T13:40:20.002Z,4.57
2022-08-16T13:44:19.044Z,3.75
2022-08-16T13:48:21.925Z,3.92
2022-08-16T13:52:24.979Z,3.83
2022-08-16T13:56:36.958Z,4.13
2022-08-16T14:00:36.479Z,5.28
2022-08-16T14:04:37.961Z,6.32
2022-08-16T14:08:35.003Z,6.00
2022-08-16T14:12:34.560Z,3.95
2022-08-16T14:16:34.020Z,4.30
2022-08-16T14:20:31.934Z,3.38
2022-08-16T14:24:30.370Z,4.13
2022-08-16T14:28:27.770Z,3.63
2022-08-16T14:32:34.018Z,4.35
2022-08-16T14:36:33.123Z,4.80
2022-08-16T14:40:30.897Z,7.30
2022-08-16T14:44:28.244Z,3.17
2022-08-16T14:48:26.209Z,3.17
2022-08-16T14:52:51.927Z,3.08
2022-08-16T14:56:43.085Z,3.03
2022-08-16T15:00:43.690Z,6.97
2022-08-16T15:04:48.268Z,3.30
2022-08-16T15:08:46.624Z,4.22
2022-08-16T15:12:45.624Z,4.90
2022-08-16T15:16:46.121Z,3.63
2022-08-16T15:20:44.314Z,3.50
2022-08-16T15:24:43.739Z,5.40
2022-08-16T15:28:41.516Z,3.20
2022-08-16T15:32:39.983Z,3.53
2022-08-16T15:36:37.013Z,3.38
2022-08-16T15:40:35.803Z,3.63
2022-08-16T15:44:45.120Z,3.78
2022-08-16T15:48:51.546Z,5.28
2022-08-16T15:52:48.665Z,3.22
2022-08-16T15:56:46.530Z,4.68
2022-08-16T16:00:46.446Z,3.28
2022-08-16T16:04:43.801Z,5.03
2022-08-16T16:08:41.803Z,4.38
2022-08-16T16:12:53.365Z,3.30
2022-08-16T16:16:52.953Z,3.15
2022-08-16T16:20:57.100Z,3.63
2022-08-16T16:24:54.488Z,4.32
2022-08-16T16:29:08.510Z,4.15
2022-08-16T16:33:08.863Z,5.80
2022-08-16T16:37:09.499Z,6.70
2022-08-16T16:41:09.805Z,4.28
2022-08-16T16:45:10.521Z,6.55
2022-08-16T16:49:09.276Z,13.57
2022-08-16T16:53:17.097Z,23.50
2022-08-16T16:57:35.284Z,39.08
2022-08-16T17:01:59.531Z,41.65
2022-08-16T17:06:09.373Z,46.40
2022-08-16T17:10:09.307Z,6.78
2022-08-16T17:14:13.889Z,9.80
2022-08-16T17:19:17.055Z,5.90
2022-08-16T17:22:43.707Z,4.30
2022-08-16T17:26:40.791Z,13.85
2022-08-16T17:30:46.063Z,40.42
2022-08-16T17:34:46.403Z,9.63
2022-08-16T17:38:44.755Z,7.78
2022-08-16T17:42:47.839Z,6.15
2022-08-16T17:46:52.171Z,6.70
2022-08-16T17:50:50.129Z,4.35
2022-08-16T17:54:51.901Z,4.13
2022-08-16T17:58:49.101Z,4.68
2022-08-16T18:02:48.046Z,4.70
2022-08-16T18:06:47.040Z,6.35
2022-08-16T18:10:44.493Z,6.20
2022-08-16T18:14:50.942Z,4.47
2022-08-16T18:18:50.388Z,7.03
2022-08-16T18:22:47.698Z,4.45
2022-08-16T18:26:45.564Z,3.35
2022-08-16T18:30:46.762Z,4.60
2022-08-16T18:34:46.459Z,7.05
2022-08-16T18:38:43.468Z,4.03
2022-08-16T18:42:52.090Z,5.75
2022-08-16T18:46:50.887Z,4.10
2022-08-16T18:50:59.369Z,3.60
2022-08-16T18:55:13.934Z,5.30
2022-08-16T18:59:11.810Z,4.80
2022-08-16T19:03:18.271Z,3.30
2022-08-16T19:07:15.271Z,3.60
2022-08-16T19:11:20.050Z,4.95
2022-08-16T19:15:24.283Z,3.80
2022-08-16T19:19:22.870Z,4.68
2022-08-16T19:23:26.399Z,6.53
2022-08-16T19:27:23.685Z,5.93
2022-08-16T19:31:26.254Z,4.80
2022-08-16T19:35:23.287Z,5.85
2022-08-16T19:39:20.317Z,5.22
2022-08-16T19:43:17.494Z,7.55
2022-08-16T19:47:15.603Z,4.00
2022-08-16T19:51:16.517Z,3.92
2022-08-16T19:55:19.341Z,6.40
2022-08-16T19:59:21.993Z,4.78
2022-08-16T20:03:22.972Z,6.20
2022-08-16T20:07:21.530Z,5.88
2022-08-16T20:11:18.922Z,4.93
2022-08-16T20:15:17.128Z,5.20
2022-08-16T20:19:14.456Z,6.18
2022-08-16T20:23:24.875Z,4.50
2022-08-16T20:27:22.864Z,5.65
2022-08-16T20:31:20.464Z,7.38
2022-08-16T20:35:22.393Z,8.13
2022-08-16T20:39:19.954Z,7.43
2022-08-16T20:43:16.966Z,9.63
2022-08-16T20:47:14.392Z,6.78
2022-08-16T20:51:12.179Z,10.48
2022-08-16T20:55:09.711Z,9.65
2022-08-16T20:59:06.698Z,7.13
2022-08-16T21:03:12.404Z,8.07
2022-08-16T21:07:09.889Z,10.95
2022-08-16T21:11:07.410Z,12.13
2022-08-16T21:15:08.841Z,7.00
2022-08-16T21:19:06.655Z,6.50
2022-08-16T21:23:07.859Z,10.50
2022-08-16T21:27:04.899Z,10.70
2022-08-16T21:31:03.738Z,8.63
2022-08-16T21:35:10.443Z,9.43
2022-08-16T21:39:07.515Z,6.30
2022-08-16T21:43:15.163Z,8.75
2022-08-16T21:47:12.279Z,6.82
2022-08-16T21:51:15.122Z,9.93
2022-08-16T21:55:12.151Z,7.93
2022-08-16T21:59:11.077Z,7.95
2022-08-16T22:03:10.737Z,8.98
2022-08-16T22:07:07.944Z,8.32
2022-08-16T22:11:08.914Z,9.00
2022-08-16T22:15:07.382Z,6.75
2022-08-16T22:19:06.835Z,6.63
2022-08-16T22:23:16.656Z,6.57
2022-08-16T22:27:13.812Z,6.30
2022-08-16T22:31:11.601Z,7.43
2022-08-16T22:35:14.346Z,6.57
2022-08-16T22:39:14.728Z,9.52
2022-08-16T22:43:13.754Z,11.02
2022-08-16T22:47:10.829Z,7.55
2022-08-16T22:51:07.891Z,7.25
2022-08-16T22:55:05.361Z,6.43
2022-08-16T22:59:02.399Z,6.03
2022-08-16T23:03:08.329Z,7.82
2022-08-16T23:07:06.715Z,6.80
2022-08-16T23:11:04.600Z,8.75
2022-08-16T23:15:04.673Z,9.93
2022-08-16T23:19:07.480Z,6.90
2022-08-16T23:23:20.461Z,6.82
2022-08-16T23:27:19.063Z,7.50
2022-08-16T23:31:16.384Z,7.05
2022-08-16T23:35:16.743Z,6.28
2022-08-16T23:39:14.020Z,6.70
2022-08-16T23:43:19.273Z,7.53
2022-08-16T23:47:16.324Z,8.55
2022-08-16T23:51:15.105Z,7.32
2022-08-16T23:55:12.231Z,7.20
2022-08-16T23:59:09.312Z,7.80
